Terminal Aerodrome Forecast
Issued by NWS

Home | Current Version | Previous Version | Text Only | Print | Product List | Glossary Off
Versions: 1 2 3 4 5 6 7 8 9 10 11 12 13 14 15

000
FTUS42 KMHX 281535 AAA
TAFPGV
TAF AMD
KPGV 281535Z 2816/2912 18009KT P6SM SCT030
      TEMPO 2816/2818 BKN030
     FM281800 18010G15KT P6SM VCSH BKN040
     FM290000 18004KT P6SM SCT050
      AMD LTD TO CLD VIS AND WIND=

USA.gov is the U.S. government's official web portal to all federal, state and local government web resources and services.